Time,TemperatureF,DewpointF,PressureIn,WindDirection,WindDirectionDegrees,WindSpeedMPH,WindSpeedGustMPH,Humidity,HourlyPrecipIn,Conditions,Clouds,dailyrainin,SolarRadiationWatts/m^2,SoftwareType,DateUTC
2013-02-16 00:02:00,40.8,39.5,30.13,West,269,0.0,0.0,95,0.00,RA,,0.00,0.0,WeatherDisplay:10.37,2013-02-15 23:02:00,
2013-02-16 00:07:00,40.8,39.5,30.13,West,269,1.1,0.0,95,0.00,RA,,0.00,0.0,WeatherDisplay:10.37,2013-02-15 23:07:00,
2013-02-16 00:13:00,40.7,39.4,30.13,West,269,0.0,0.0,95,0.00,CLR,,0.00,0.0,WeatherDisplay:10.37,2013-02-15 23:13:00,
2013-02-16 00:18:00,40.6,39.3,30.13,West,269,1.0,0.0,95,0.00,CLR,,0.00,0.0,WeatherDisplay:10.37,2013-02-15 23:18:00,
2013-02-16 00:23:00,40.6,39.3,30.14,West,269,0.0,0.0,95,0.00,CLR,,0.00,0.0,WeatherDisplay:10.37,2013-02-15 23:23:00,
2013-02-16 00:29:00,40.5,39.2,30.14,West,269,0.0,0.0,95,0.00,CLR,,0.00,0.0,WeatherDisplay:10.37,2013-02-15 23:29:00,
2013-02-16 00:34:00,40.5,39.2,30.14,West,269,0.0,0.0,95,0.00,CLR,,0.00,0.0,WeatherDisplay:10.37,2013-02-15 23:34:00,
2013-02-16 00:39:00,40.4,39.1,30.14,West,269,0.0,0.0,95,0.01,RA,,0.01,0.0,WeatherDisplay:10.37,2013-02-15 23:39:00,
2013-02-16 00:44:00,40.4,39.1,30.14,West,269,3.5,3.5,95,0.01,RA,,0.01,0.0,WeatherDisplay:10.37,2013-02-15 23:44:00,
2013-02-16 00:49:00,40.3,39.0,30.14,WSW,246,2.0,2.0,95,0.01,CLR,,0.01,0.0,WeatherDisplay:10.37,2013-02-15 23:49:00,
2013-02-16 00:54:00,40.3,39.0,30.14,WSW,246,0.0,0.0,95,0.01,CLR,,0.01,0.0,WeatherDisplay:10.37,2013-02-15 23:54:00,
2013-02-16 00:59:00,40.3,39.0,30.14,WSW,246,0.0,0.0,95,0.01,CLR,,0.01,0.0,WeatherDisplay:10.37,2013-02-15 23:59:00,
2013-02-16 01:04:00,40.2,38.9,30.14,WSW,246,1.1,1.1,95,0.01,CLR,,0.01,0.0,WeatherDisplay:10.37,2013-02-16 00:04:00,
2013-02-16 01:09:00,40.2,38.9,30.14,WSW,241,0.0,0.0,95,0.01,CLR,,0.01,0.0,WeatherDisplay:10.37,2013-02-16 00:09:00,
2013-02-16 01:14:00,40.2,38.9,30.14,WSW,241,0.0,0.1,95,0.01,CLR,,0.01,0.0,WeatherDisplay:10.37,2013-02-16 00:14:00,
2013-02-16 01:19:00,40.1,38.8,30.14,WSW,241,0.0,0.0,95,0.01,CLR,,0.01,0.0,WeatherDisplay:10.37,2013-02-16 00:19:00,
2013-02-16 01:25:00,40.0,38.7,30.14,SW,236,0.0,1.1,95,0.01,CLR,,0.01,0.0,WeatherDisplay:10.37,2013-02-16 00:25:00,
2013-02-16 01:30:00,40.0,38.7,30.14,SW,236,0.0,0.0,95,0.01,CLR,,0.01,0.0,WeatherDisplay:10.37,2013-02-16 00:30:00,
2013-02-16 01:35:00,39.9,38.6,30.14,SW,236,0.0,0.0,95,0.01,CLR,,0.01,0.0,WeatherDisplay:10.37,2013-02-16 00:35:00,
2013-02-16 01:40:00,40.0,38.7,30.14,West,270,0.0,0.0,95,0.00,CLR,,0.01,0.0,WeatherDisplay:10.37,2013-02-16 00:40:00,
2013-02-16 01:45:00,40.1,38.8,30.14,West,270,0.0,0.0,95,0.00,CLR,,0.01,0.0,WeatherDisplay:10.37,2013-02-16 00:45:00,
2013-02-16 01:51:00,40.1,38.8,30.14,West,270,1.0,0.0,95,0.00,CLR,,0.01,0.0,WeatherDisplay:10.37,2013-02-16 00:51:00,
2013-02-16 01:56:00,40.1,38.8,30.14,West,270,0.0,0.0,95,0.00,CLR,,0.01,0.0,WeatherDisplay:10.37,2013-02-16 00:56:00,
2013-02-16 02:01:00,40.2,38.9,30.14,West,270,1.1,0.0,95,0.00,OVC,,0.01,0.0,WeatherDisplay:10.37,2013-02-16 01:01:00,
2013-02-16 02:07:00,40.2,38.9,30.14,WSW,247,3.5,3.5,95,0.00,OVC,,0.01,0.0,WeatherDisplay:10.37,2013-02-16 01:07:00,
2013-02-16 02:12:00,40.3,39.0,30.14,West,265,3.5,3.5,95,0.00,OVC,,0.01,0.0,WeatherDisplay:10.37,2013-02-16 01:12:00,
2013-02-16 02:17:00,40.3,39.0,30.14,West,265,3.5,3.5,95,0.00,OVC,,0.01,0.0,WeatherDisplay:10.37,2013-02-16 01:17:00,
2013-02-16 02:22:00,40.4,39.1,30.14,West,265,1.1,1.1,95,0.00,OVC,,0.01,0.0,WeatherDisplay:10.37,2013-02-16 01:22:00,
2013-02-16 02:27:00,40.4,39.1,30.15,West,265,0.0,0.0,95,0.00,OVC,,0.01,0.0,WeatherDisplay:10.37,2013-02-16 01:27:00,
2013-02-16 02:33:00,40.5,39.2,30.15,WSW,242,2.3,0.0,95,0.00,OVC,,0.01,0.0,WeatherDisplay:10.37,2013-02-16 01:33:00,
2013-02-16 02:38:00,40.5,39.2,30.14,WSW,242,0.0,0.0,95,0.01,RA,,0.02,0.0,WeatherDisplay:10.37,2013-02-16 01:38:00,
2013-02-16 02:43:00,40.5,39.2,30.15,WSW,244,4.0,4.0,95,0.01,RA,,0.02,0.0,WeatherDisplay:10.37,2013-02-16 01:43:00,
2013-02-16 02:48:00,40.6,39.3,30.14,WSW,244,1.1,1.1,95,0.01,OVC,,0.02,0.0,WeatherDisplay:10.37,2013-02-16 01:48:00,
2013-02-16 02:53:00,40.6,39.3,30.14,WSW,244,0.0,0.0,95,0.01,OVC,,0.02,0.0,WeatherDisplay:10.37,2013-02-16 01:53:00,
2013-02-16 02:58:00,40.6,39.3,30.14,WSW,244,0.0,0.0,95,0.01,OVC,,0.02,0.0,WeatherDisplay:10.37,2013-02-16 01:58:00,
2013-02-16 03:04:00,40.6,39.3,30.14,WSW,244,3.5,3.5,95,0.01,OVC,,0.02,0.0,WeatherDisplay:10.37,2013-02-16 02:04:00,
2013-02-16 03:09:00,40.5,39.2,30.14,SW,222,3.5,3.5,95,0.01,OVC,,0.02,0.0,WeatherDisplay:10.37,2013-02-16 02:09:00,
2013-02-16 03:15:00,40.5,39.2,30.14,SW,222,0.0,0.1,95,0.01,OVC,,0.02,0.0,WeatherDisplay:10.37,2013-02-16 02:15:00,
2013-02-16 03:20:00,40.5,39.2,30.15,SW,222,1.1,1.1,95,0.01,OVC,,0.02,0.0,WeatherDisplay:10.37,2013-02-16 02:20:00,
2013-02-16 03:25:00,40.4,39.1,30.14,SW,222,0.0,0.0,95,0.01,OVC,,0.02,0.0,WeatherDisplay:10.37,2013-02-16 02:25:00,
2013-02-16 03:30:00,40.4,39.1,30.14,SW,222,1.1,1.1,95,0.01,OVC,,0.02,0.0,WeatherDisplay:10.37,2013-02-16 02:30:00,
2013-02-16 03:36:00,40.4,39.1,30.14,SW,222,3.0,3.0,95,0.00,OVC,,0.02,0.0,WeatherDisplay:10.37,2013-02-16 02:36:00,
2013-02-16 03:41:00,40.4,39.1,30.14,SW,222,1.1,0.0,95,0.00,OVC,,0.02,0.0,WeatherDisplay:10.37,2013-02-16 02:41:00,
2013-02-16 03:46:00,40.3,39.0,30.14,SW,222,0.0,0.0,95,0.00,OVC,,0.02,0.0,WeatherDisplay:10.37,2013-02-16 02:46:00,
2013-02-16 03:52:00,40.2,38.9,30.14,SW,222,0.0,0.0,95,0.00,OVC,,0.02,0.0,WeatherDisplay:10.37,2013-02-16 02:52:00,
2013-02-16 03:57:00,40.2,38.9,30.14,SW,222,0.0,0.0,95,0.00,OVC,,0.02,0.0,WeatherDisplay:10.37,2013-02-16 02:57:00,
2013-02-16 04:02:00,40.1,38.8,30.14,SW,222,0.0,0.0,95,0.00,-RA,,0.02,0.0,WeatherDisplay:10.37,2013-02-16 03:02:00,
2013-02-16 04:07:00,40.1,38.8,30.14,SW,222,1.1,1.1,95,0.00,-RA,,0.02,0.0,WeatherDisplay:10.37,2013-02-16 03:07:00,
2013-02-16 04:12:00,40.0,38.7,30.14,SW,223,2.3,0.0,95,0.00,-RA,,0.02,0.0,WeatherDisplay:10.37,2013-02-16 03:12:00,
2013-02-16 04:17:00,39.9,38.6,30.14,SW,223,0.0,0.0,95,0.00,-RA,,0.02,0.0,WeatherDisplay:10.37,2013-02-16 03:17:00,
2013-02-16 04:23:00,39.9,38.6,30.14,SW,223,0.0,0.0,95,0.00,-RA,,0.02,0.0,WeatherDisplay:10.37,2013-02-16 03:23:00,
2013-02-16 04:28:00,39.8,38.5,30.14,SW,223,0.0,0.0,95,0.00,-RA,,0.02,0.0,WeatherDisplay:10.37,2013-02-16 03:28:00,
2013-02-16 04:33:00,39.8,38.5,30.14,SW,223,1.1,0.0,95,0.00,-RA,,0.02,0.0,WeatherDisplay:10.37,2013-02-16 03:33:00,
2013-02-16 04:38:00,39.7,38.4,30.15,SW,223,3.5,3.5,95,0.00,-RA,,0.02,0.0,WeatherDisplay:10.37,2013-02-16 03:38:00,
2013-02-16 04:43:00,39.7,38.4,30.15,SW,223,2.3,2.3,95,0.00,-RA,,0.02,0.0,WeatherDisplay:10.37,2013-02-16 03:43:00,
2013-02-16 04:49:00,39.7,38.4,30.15,SW,230,3.5,3.5,95,0.00,-RA,,0.02,0.0,WeatherDisplay:10.37,2013-02-16 03:49:00,
2013-02-16 04:54:00,39.7,38.4,30.15,SW,230,3.5,3.5,95,0.00,-RA,,0.02,0.0,WeatherDisplay:10.37,2013-02-16 03:54:00,
2013-02-16 04:59:00,39.7,38.4,30.15,SW,230,1.1,1.1,95,0.00,-RA,,0.02,0.0,WeatherDisplay:10.37,2013-02-16 03:59:00,
2013-02-16 05:04:00,39.7,38.4,30.15,SW,230,1.1,0.0,95,0.00,-DZ,,0.02,0.0,WeatherDisplay:10.37,2013-02-16 04:04:00,
2013-02-16 05:09:00,39.7,38.4,30.15,SW,230,0.0,0.0,95,0.00,-DZ,,0.02,0.0,WeatherDisplay:10.37,2013-02-16 04:09:00,
2013-02-16 05:15:00,39.7,38.4,30.15,SW,230,0.0,0.0,95,0.00,-DZ,,0.02,0.0,WeatherDisplay:10.37,2013-02-16 04:15:00,
2013-02-16 05:20:00,39.7,38.4,30.15,SW,230,0.0,0.0,95,0.00,-DZ,,0.02,0.0,WeatherDisplay:10.37,2013-02-16 04:20:00,
2013-02-16 05:25:00,39.7,38.4,30.15,SW,230,0.0,0.0,95,0.00,-DZ,,0.02,0.0,WeatherDisplay:10.37,2013-02-16 04:25:00,
2013-02-16 05:30:00,39.7,38.4,30.16,SW,230,1.1,1.1,95,0.00,-DZ,,0.02,0.0,WeatherDisplay:10.37,2013-02-16 04:30:00,
2013-02-16 05:35:00,39.6,38.3,30.16,SW,230,2.3,2.3,95,0.00,-DZ,,0.02,0.0,WeatherDisplay:10.37,2013-02-16 04:35:00,
2013-02-16 05:40:00,39.6,38.3,30.16,SW,230,0.0,0.0,95,0.00,-DZ,,0.02,0.0,WeatherDisplay:10.37,2013-02-16 04:40:00,
2013-02-16 05:46:00,39.6,38.3,30.16,SW,230,0.0,0.0,95,0.00,-DZ,,0.02,0.0,WeatherDisplay:10.37,2013-02-16 04:46:00,
2013-02-16 05:51:00,39.5,38.2,30.16,SW,230,0.0,0.0,95,0.00,-DZ,,0.02,0.0,WeatherDisplay:10.37,2013-02-16 04:51:00,
2013-02-16 05:56:00,39.5,38.2,30.16,SW,233,1.1,0.0,95,0.00,-DZ,,0.02,0.0,WeatherDisplay:10.37,2013-02-16 04:56:00,
2013-02-16 06:00:00,39.5,38.2,30.16,SW,233,2.3,2.3,95,0.00,-DZ,,0.02,0.0,WeatherDisplay:10.37,2013-02-16 05:00:00,
2013-02-16 06:01:00,39.5,38.2,30.16,SW,233,1.1,0.0,95,0.00,FEW,,0.02,0.0,WeatherDisplay:10.37,2013-02-16 05:01:00,
2013-02-16 06:07:00,39.5,38.2,30.16,SW,233,0.0,0.0,95,0.00,FEW,,0.02,0.0,WeatherDisplay:10.37,2013-02-16 05:07:00,
2013-02-16 06:12:00,39.4,38.1,30.16,SW,233,0.0,0.0,95,0.00,FEW,,0.02,0.0,WeatherDisplay:10.37,2013-02-16 05:12:00,
2013-02-16 06:17:00,39.4,38.1,30.16,SW,233,0.0,0.0,95,0.00,FEW,,0.02,0.0,WeatherDisplay:10.37,2013-02-16 05:17:00,
2013-02-16 06:23:00,39.4,38.1,30.16,SW,233,0.0,0.0,95,0.00,FEW,,0.02,0.0,WeatherDisplay:10.37,2013-02-16 05:23:00,
2013-02-16 06:28:00,39.4,38.1,30.16,SW,233,0.0,0.0,95,0.00,FEW,,0.02,0.0,WeatherDisplay:10.37,2013-02-16 05:28:00,
2013-02-16 06:33:00,39.4,38.1,30.16,SW,233,0.0,0.0,95,0.00,FEW,,0.02,0.0,WeatherDisplay:10.37,2013-02-16 05:33:00,
2013-02-16 06:39:00,39.3,38.0,30.16,SW,233,0.0,0.0,95,0.00,FEW,,0.02,0.0,WeatherDisplay:10.37,2013-02-16 05:39:00,
2013-02-16 06:44:00,39.3,38.0,30.16,SW,233,0.0,0.0,95,0.00,FEW,,0.02,0.0,WeatherDisplay:10.37,2013-02-16 05:44:00,
2013-02-16 06:49:00,39.2,37.9,30.16,SW,233,0.0,0.0,95,0.00,FEW,,0.02,0.0,WeatherDisplay:10.37,2013-02-16 05:49:00,
2013-02-16 06:54:00,39.2,37.9,30.17,SW,233,0.0,0.0,95,0.00,FEW,,0.02,0.0,WeatherDisplay:10.37,2013-02-16 05:54:00,
2013-02-16 07:00:00,39.1,37.8,30.17,SW,233,0.0,0.0,95,0.00,FEW,,0.02,0.0,WeatherDisplay:10.37,2013-02-16 06:00:00,
2013-02-16 07:05:00,39.1,37.8,30.17,SW,232,0.0,0.0,95,0.00,CLR,,0.02,0.0,WeatherDisplay:10.37,2013-02-16 06:05:00,
2013-02-16 07:10:00,39.0,37.7,30.17,SW,233,0.0,0.0,95,0.00,CLR,,0.02,0.0,WeatherDisplay:10.37,2013-02-16 06:10:00,
2013-02-16 07:15:00,38.9,37.6,30.17,SW,233,0.0,0.0,95,0.00,CLR,,0.02,0.0,WeatherDisplay:10.37,2013-02-16 06:15:00,
2013-02-16 07:20:00,38.9,37.6,30.17,SW,233,0.0,0.0,95,0.00,CLR,,0.02,0.0,WeatherDisplay:10.37,2013-02-16 06:20:00,
2013-02-16 07:26:00,38.8,37.5,30.17,SW,233,0.0,0.0,95,0.00,CLR,,0.02,0.0,WeatherDisplay:10.37,2013-02-16 06:26:00,
2013-02-16 07:31:00,38.7,37.4,30.17,SW,232,0.0,0.0,95,0.00,CLR,,0.02,0.0,WeatherDisplay:10.37,2013-02-16 06:31:00,
2013-02-16 07:36:00,38.6,37.3,30.17,SW,232,0.0,0.0,95,0.00,CLR,,0.02,0.0,WeatherDisplay:10.37,2013-02-16 06:36:00,
2013-02-16 07:41:00,38.5,37.2,30.17,SW,233,0.0,0.0,95,0.00,CLR,,0.02,0.0,WeatherDisplay:10.37,2013-02-16 06:41:00,
2013-02-16 07:46:00,38.4,37.1,30.17,SW,233,0.0,0.0,95,0.00,CLR,,0.02,0.0,WeatherDisplay:10.37,2013-02-16 06:46:00,
2013-02-16 07:51:00,38.4,37.1,30.17,SW,233,0.0,0.0,95,0.00,CLR,,0.02,0.0,WeatherDisplay:10.37,2013-02-16 06:51:00,
2013-02-16 07:56:00,38.4,37.1,30.17,SW,233,0.0,0.0,95,0.00,CLR,,0.02,0.0,WeatherDisplay:10.37,2013-02-16 06:56:00,
2013-02-16 08:02:00,38.3,37.0,30.17,SW,233,0.0,0.0,95,0.00,OVC,,0.02,0.0,WeatherDisplay:10.37,2013-02-16 07:02:00,
2013-02-16 08:07:00,38.3,37.0,30.17,SW,233,0.0,0.0,95,0.00,OVC,,0.02,0.0,WeatherDisplay:10.37,2013-02-16 07:07:00,
2013-02-16 08:12:00,38.3,37.0,30.18,SW,233,0.0,0.0,95,0.00,OVC,,0.02,5.0,WeatherDisplay:10.37,2013-02-16 07:12:00,
2013-02-16 08:17:00,38.3,37.0,30.18,SW,232,0.0,0.0,95,0.00,OVC,,0.02,7.0,WeatherDisplay:10.37,2013-02-16 07:17:00,
2013-02-16 08:23:00,38.3,37.0,30.18,SW,233,0.0,0.0,95,0.00,OVC,,0.02,9.0,WeatherDisplay:10.37,2013-02-16 07:23:00,
2013-02-16 08:28:00,38.4,37.1,30.18,SW,233,0.0,0.0,95,0.00,OVC,,0.02,12.0,WeatherDisplay:10.37,2013-02-16 07:28:00,
2013-02-16 08:33:00,38.5,37.2,30.18,SW,233,0.0,0.0,95,0.00,OVC,,0.02,14.0,WeatherDisplay:10.37,2013-02-16 07:33:00,
2013-02-16 08:38:00,38.6,37.3,30.18,SW,233,0.0,0.0,95,0.00,OVC,,0.02,18.0,WeatherDisplay:10.37,2013-02-16 07:38:00,
2013-02-16 08:43:00,38.7,37.4,30.18,SW,233,0.0,0.0,95,0.00,OVC,,0.02,21.0,WeatherDisplay:10.37,2013-02-16 07:43:00,
2013-02-16 08:49:00,38.8,37.5,30.18,SW,233,0.0,0.0,95,0.00,OVC,,0.02,23.0,WeatherDisplay:10.37,2013-02-16 07:49:00,
2013-02-16 08:54:00,38.9,37.6,30.19,SW,233,0.0,0.0,95,0.00,OVC,,0.02,25.0,WeatherDisplay:10.37,2013-02-16 07:54:00,
2013-02-16 08:59:00,38.9,37.6,30.19,SW,233,0.0,0.0,95,0.00,OVC,,0.02,28.0,WeatherDisplay:10.37,2013-02-16 07:59:00,
2013-02-16 09:04:00,39.1,37.8,30.19,SW,233,0.0,0.0,95,0.00,FEW,,0.02,37.0,WeatherDisplay:10.37,2013-02-16 08:04:00,
2013-02-16 09:10:00,39.2,37.9,30.19,SW,233,0.0,0.0,95,0.00,FEW,,0.02,44.0,WeatherDisplay:10.37,2013-02-16 08:10:00,
2013-02-16 09:15:00,39.5,38.2,30.19,SW,233,0.0,0.0,95,0.00,FEW,,0.02,49.0,WeatherDisplay:10.37,2013-02-16 08:15:00,
2013-02-16 09:20:00,39.6,38.3,30.19,SW,233,0.0,0.0,95,0.00,FEW,,0.02,49.0,WeatherDisplay:10.37,2013-02-16 08:20:00,
2013-02-16 09:26:00,39.8,38.5,30.19,SW,233,0.0,0.0,95,0.00,FEW,,0.02,47.0,WeatherDisplay:10.37,2013-02-16 08:26:00,
2013-02-16 09:31:00,40.1,38.8,30.19,SW,233,0.0,0.0,95,0.00,FEW,,0.02,44.0,WeatherDisplay:10.37,2013-02-16 08:31:00,
2013-02-16 09:36:00,40.4,39.1,30.19,SW,233,1.1,0.0,95,0.00,FEW,,0.02,46.0,WeatherDisplay:10.37,2013-02-16 08:36:00,
2013-02-16 09:41:00,40.5,39.2,30.19,SW,233,0.0,0.0,95,0.00,FEW,,0.02,51.0,WeatherDisplay:10.37,2013-02-16 08:41:00,
2013-02-16 09:46:00,40.6,39.3,30.19,SW,233,0.0,0.0,95,0.00,FEW,,0.02,51.0,WeatherDisplay:10.37,2013-02-16 08:46:00,
2013-02-16 09:52:00,40.7,39.4,30.19,SW,233,0.0,0.0,95,0.00,FEW,,0.02,53.0,WeatherDisplay:10.37,2013-02-16 08:52:00,
2013-02-16 09:57:00,40.9,39.6,30.19,SW,232,0.0,0.0,95,0.00,FEW,,0.02,54.0,WeatherDisplay:10.37,2013-02-16 08:57:00,
2013-02-16 10:02:00,41.1,39.8,30.19,SW,233,0.0,0.0,95,0.00,OVC,,0.02,58.0,WeatherDisplay:10.37,2013-02-16 09:02:00,
2013-02-16 10:07:00,41.3,40.0,30.20,SW,233,1.1,1.1,95,0.00,OVC,,0.02,60.0,WeatherDisplay:10.37,2013-02-16 09:07:00,
2013-02-16 10:12:00,41.6,40.3,30.20,SW,233,3.5,0.0,95,0.00,OVC,,0.02,63.0,WeatherDisplay:10.37,2013-02-16 09:12:00,
2013-02-16 10:18:00,41.7,40.4,30.20,SW,233,1.1,1.1,95,0.00,OVC,,0.02,69.0,WeatherDisplay:10.37,2013-02-16 09:18:00,
2013-02-16 10:23:00,41.9,40.6,30.20,SW,233,0.0,0.0,95,0.00,OVC,,0.02,69.0,WeatherDisplay:10.37,2013-02-16 09:23:00,
2013-02-16 10:28:00,42.1,40.8,30.20,SW,233,1.1,1.1,95,0.00,OVC,,0.02,65.0,WeatherDisplay:10.37,2013-02-16 09:28:00,
2013-02-16 10:33:00,42.3,41.0,30.20,SW,233,1.1,0.0,95,0.00,OVC,,0.02,72.0,WeatherDisplay:10.37,2013-02-16 09:33:00,
2013-02-16 10:38:00,42.5,41.4,30.20,SW,233,0.0,0.0,96,0.00,OVC,,0.02,77.0,WeatherDisplay:10.37,2013-02-16 09:38:00,
2013-02-16 10:43:00,42.7,41.4,30.20,WSW,244,1.1,1.4,95,0.00,OVC,,0.02,79.0,WeatherDisplay:10.37,2013-02-16 09:43:00,
2013-02-16 10:49:00,42.8,41.5,30.20,WSW,244,1.1,0.0,95,0.00,OVC,,0.02,81.0,WeatherDisplay:10.37,2013-02-16 09:49:00,
2013-02-16 10:54:00,43.0,41.7,30.21,WSW,245,1.1,1.1,95,0.00,OVC,,0.02,79.0,WeatherDisplay:10.37,2013-02-16 09:54:00,
2013-02-16 10:59:00,43.1,42.0,30.21,West,265,3.5,3.5,96,0.00,OVC,,0.02,77.0,WeatherDisplay:10.37,2013-02-16 09:59:00,
2013-02-16 11:04:00,43.1,42.0,30.21,West,265,2.3,0.0,96,0.00,BKN,,0.02,91.0,WeatherDisplay:10.37,2013-02-16 10:04:00,
2013-02-16 11:09:00,43.2,42.1,30.21,West,265,3.5,3.5,96,0.00,BKN,,0.02,104.0,WeatherDisplay:10.37,2013-02-16 10:09:00,
2013-02-16 11:15:00,43.3,42.0,30.21,West,265,3.5,3.5,95,0.00,BKN,,0.02,113.0,WeatherDisplay:10.37,2013-02-16 10:15:00,
2013-02-16 11:20:00,43.4,42.1,30.21,West,265,0.0,0.0,95,0.00,BKN,,0.02,121.0,WeatherDisplay:10.37,2013-02-16 10:20:00,
2013-02-16 11:25:00,43.5,42.2,30.21,West,265,0.0,0.0,95,0.00,BKN,,0.02,116.0,WeatherDisplay:10.37,2013-02-16 10:25:00,
2013-02-16 11:30:00,43.7,42.6,30.21,West,265,3.0,3.0,96,0.00,BKN,,0.02,113.0,WeatherDisplay:10.37,2013-02-16 10:30:00,
2013-02-16 11:35:00,43.8,42.7,30.21,West,265,0.0,0.0,96,0.00,BKN,,0.02,109.0,WeatherDisplay:10.37,2013-02-16 10:35:00,
2013-02-16 11:41:00,43.9,42.6,30.21,West,266,1.1,0.0,95,0.00,BKN,,0.02,107.0,WeatherDisplay:10.37,2013-02-16 10:41:00,
2013-02-16 11:46:00,44.0,42.7,30.21,West,266,0.0,0.0,95,0.00,BKN,,0.02,105.0,WeatherDisplay:10.37,2013-02-16 10:46:00,
2013-02-16 11:51:00,44.0,42.7,30.21,West,266,2.0,2.0,95,0.00,BKN,,0.02,104.0,WeatherDisplay:10.37,2013-02-16 10:51:00,
2013-02-16 11:56:00,44.1,42.8,30.21,West,266,1.1,0.0,95,0.00,BKN,,0.02,114.0,WeatherDisplay:10.37,2013-02-16 10:56:00,
2013-02-16 12:02:00,44.2,43.1,30.21,West,266,1.1,0.0,96,0.00,FEW,,0.02,120.0,WeatherDisplay:10.37,2013-02-16 11:02:00,
2013-02-16 12:07:00,44.3,43.2,30.21,West,266,2.3,2.3,96,0.00,FEW,,0.02,121.0,WeatherDisplay:10.37,2013-02-16 11:07:00,
2013-02-16 12:12:00,44.3,43.0,30.21,West,266,1.1,1.1,95,0.00,FEW,,0.02,130.0,WeatherDisplay:10.37,2013-02-16 11:12:00,
2013-02-16 12:17:00,44.3,43.0,30.21,West,266,3.5,3.5,95,0.00,FEW,,0.02,130.0,WeatherDisplay:10.37,2013-02-16 11:17:00,
2013-02-16 12:22:00,44.4,43.1,30.21,West,266,3.0,3.0,95,0.00,FEW,,0.02,135.0,WeatherDisplay:10.37,2013-02-16 11:22:00,
2013-02-16 12:28:00,44.5,43.2,30.21,West,266,0.0,0.0,95,0.00,FEW,,0.02,134.0,WeatherDisplay:10.37,2013-02-16 11:28:00,
2013-02-16 12:33:00,44.6,43.3,30.21,West,266,1.1,0.0,95,0.00,FEW,,0.02,128.0,WeatherDisplay:10.37,2013-02-16 11:33:00,
2013-02-16 12:38:00,44.6,43.3,30.21,West,266,2.3,2.3,95,0.00,FEW,,0.02,114.0,WeatherDisplay:10.37,2013-02-16 11:38:00,
2013-02-16 12:43:00,44.6,43.3,30.21,West,266,0.0,0.0,95,0.00,FEW,,0.02,100.0,WeatherDisplay:10.37,2013-02-16 11:43:00,
2013-02-16 12:49:00,44.6,43.3,30.21,West,266,0.0,0.0,95,0.00,FEW,,0.02,86.0,WeatherDisplay:10.37,2013-02-16 11:49:00,
2013-02-16 12:54:00,44.7,43.4,30.20,West,266,1.1,0.0,95,0.00,FEW,,0.02,88.0,WeatherDisplay:10.37,2013-02-16 11:54:00,
2013-02-16 12:59:00,44.7,43.4,30.20,West,266,0.0,0.0,95,0.00,FEW,,0.02,91.0,WeatherDisplay:10.37,2013-02-16 11:59:00,
2013-02-16 13:04:00,44.7,43.4,30.20,West,266,0.0,0.0,95,0.00,FEW,,0.02,95.0,WeatherDisplay:10.37,2013-02-16 12:04:00,
2013-02-16 13:09:00,44.7,43.4,30.20,West,266,0.0,0.1,95,0.00,FEW,,0.02,95.0,WeatherDisplay:10.37,2013-02-16 12:09:00,
2013-02-16 13:15:00,44.8,43.5,30.20,West,266,0.0,0.0,95,0.00,FEW,,0.02,98.0,WeatherDisplay:10.37,2013-02-16 12:15:00,
2013-02-16 13:20:00,44.8,43.2,30.20,West,266,0.0,0.0,94,0.00,FEW,,0.02,114.0,WeatherDisplay:10.37,2013-02-16 12:20:00,
2013-02-16 13:25:00,45.0,43.4,30.20,West,266,0.0,0.1,94,0.00,FEW,,0.02,121.0,WeatherDisplay:10.37,2013-02-16 12:25:00,
2013-02-16 13:30:00,45.1,43.5,30.20,West,266,2.3,2.3,94,0.00,FEW,,0.02,120.0,WeatherDisplay:10.37,2013-02-16 12:30:00,
2013-02-16 13:35:00,45.1,43.5,30.20,West,266,1.1,0.0,94,0.00,FEW,,0.02,120.0,WeatherDisplay:10.37,2013-02-16 12:35:00,
2013-02-16 13:41:00,45.2,43.6,30.20,West,266,1.1,0.0,94,0.00,FEW,,0.02,118.0,WeatherDisplay:10.37,2013-02-16 12:41:00,
2013-02-16 13:46:00,45.3,43.7,30.20,West,266,1.1,1.1,94,0.00,FEW,,0.02,114.0,WeatherDisplay:10.37,2013-02-16 12:46:00,
2013-02-16 13:51:00,45.4,43.8,30.20,West,266,1.1,0.0,94,0.00,FEW,,0.02,105.0,WeatherDisplay:10.37,2013-02-16 12:51:00,
2013-02-16 13:56:00,45.5,43.9,30.20,West,266,2.3,2.3,94,0.00,FEW,,0.02,100.0,WeatherDisplay:10.37,2013-02-16 12:56:00,
2013-02-16 14:01:00,45.5,43.6,30.20,West,266,0.0,0.0,93,0.00,BKN,,0.02,95.0,WeatherDisplay:10.37,2013-02-16 13:01:00,
2013-02-16 14:07:00,45.5,43.6,30.20,West,267,1.1,1.1,93,0.00,BKN,,0.02,88.0,WeatherDisplay:10.37,2013-02-16 13:07:00,
2013-02-16 14:12:00,45.6,43.7,30.20,West,267,0.0,0.0,93,0.00,BKN,,0.02,83.0,WeatherDisplay:10.37,2013-02-16 13:12:00,
2013-02-16 14:17:00,45.7,43.8,30.20,West,267,3.5,3.5,93,0.00,BKN,,0.02,81.0,WeatherDisplay:10.37,2013-02-16 13:17:00,
2013-02-16 14:22:00,45.6,43.4,30.20,West,267,0.0,0.1,92,0.00,BKN,,0.02,81.0,WeatherDisplay:10.37,2013-02-16 13:22:00,
2013-02-16 14:27:00,45.6,43.4,30.20,West,267,1.1,0.0,92,0.00,BKN,,0.02,83.0,WeatherDisplay:10.37,2013-02-16 13:27:00,
2013-02-16 14:33:00,45.6,43.1,30.19,West,267,0.0,0.0,91,0.00,BKN,,0.02,86.0,WeatherDisplay:10.37,2013-02-16 13:33:00,
2013-02-16 14:38:00,45.6,43.1,30.19,West,267,0.0,0.0,91,0.00,BKN,,0.02,90.0,WeatherDisplay:10.37,2013-02-16 13:38:00,
2013-02-16 14:43:00,45.7,43.2,30.19,West,267,1.1,0.0,91,0.00,BKN,,0.02,91.0,WeatherDisplay:10.37,2013-02-16 13:43:00,
2013-02-16 14:48:00,45.8,43.3,30.19,West,267,0.0,0.0,91,0.00,BKN,,0.02,93.0,WeatherDisplay:10.37,2013-02-16 13:48:00,
2013-02-16 14:54:00,45.7,42.9,30.19,West,267,0.0,0.0,90,0.00,BKN,,0.02,95.0,WeatherDisplay:10.37,2013-02-16 13:54:00,
2013-02-16 14:59:00,45.8,43.0,30.19,West,267,0.0,0.0,90,0.00,BKN,,0.02,93.0,WeatherDisplay:10.37,2013-02-16 13:59:00,
2013-02-16 15:04:00,45.8,43.0,30.19,West,267,0.0,0.0,90,0.00,BKN,,0.02,93.0,WeatherDisplay:10.37,2013-02-16 14:04:00,
2013-02-16 15:09:00,45.9,43.1,30.19,West,267,1.1,0.0,90,0.00,BKN,,0.02,93.0,WeatherDisplay:10.37,2013-02-16 14:09:00,
2013-02-16 15:14:00,45.9,42.8,30.19,West,267,1.1,0.0,89,0.00,BKN,,0.02,93.0,WeatherDisplay:10.37,2013-02-16 14:14:00,
2013-02-16 15:20:00,45.9,42.8,30.19,West,267,0.0,0.0,89,0.00,BKN,,0.02,91.0,WeatherDisplay:10.37,2013-02-16 14:20:00,
2013-02-16 15:25:00,46.0,42.9,30.19,West,267,0.0,0.0,89,0.00,BKN,,0.02,88.0,WeatherDisplay:10.37,2013-02-16 14:25:00,
2013-02-16 15:30:00,46.0,42.9,30.19,West,267,2.3,2.3,89,0.00,BKN,,0.02,88.0,WeatherDisplay:10.37,2013-02-16 14:30:00,
2013-02-16 15:35:00,46.0,42.9,30.19,West,267,1.1,0.0,89,0.00,BKN,,0.02,88.0,WeatherDisplay:10.37,2013-02-16 14:35:00,
2013-02-16 15:40:00,46.1,43.0,30.19,West,267,0.0,0.0,89,0.00,BKN,,0.02,86.0,WeatherDisplay:10.37,2013-02-16 14:40:00,
2013-02-16 15:46:00,46.1,43.0,30.19,West,267,2.3,2.3,89,0.00,BKN,,0.02,83.0,WeatherDisplay:10.37,2013-02-16 14:46:00,
2013-02-16 15:51:00,46.1,42.7,30.19,West,267,0.0,0.0,88,0.00,BKN,,0.02,83.0,WeatherDisplay:10.37,2013-02-16 14:51:00,
2013-02-16 15:56:00,46.1,42.7,30.19,West,267,0.0,0.0,88,0.00,BKN,,0.02,79.0,WeatherDisplay:10.37,2013-02-16 14:56:00,
2013-02-16 16:01:00,46.2,42.8,30.19,West,267,1.1,1.1,88,0.00,BKN,,0.02,77.0,WeatherDisplay:10.37,2013-02-16 15:01:00,
2013-02-16 16:07:00,46.1,42.7,30.19,West,267,1.1,1.1,88,0.00,BKN,,0.02,72.0,WeatherDisplay:10.37,2013-02-16 15:07:00,
2013-02-16 16:12:00,46.1,42.7,30.19,West,267,0.0,0.0,88,0.00,BKN,,0.02,72.0,WeatherDisplay:10.37,2013-02-16 15:12:00,
2013-02-16 16:17:00,46.1,42.7,30.19,West,267,0.0,0.0,88,0.00,BKN,,0.02,65.0,WeatherDisplay:10.37,2013-02-16 15:17:00,
2013-02-16 16:22:00,46.1,42.7,30.19,West,267,0.0,0.0,88,0.00,BKN,,0.02,60.0,WeatherDisplay:10.37,2013-02-16 15:22:00,
2013-02-16 16:27:00,46.1,42.7,30.19,West,267,2.3,2.3,88,0.00,BKN,,0.02,53.0,WeatherDisplay:10.37,2013-02-16 15:27:00,
2013-02-16 16:33:00,46.1,42.7,30.19,West,267,2.0,2.0,88,0.00,BKN,,0.02,49.0,WeatherDisplay:10.37,2013-02-16 15:33:00,
2013-02-16 16:38:00,46.0,42.6,30.19,West,268,3.0,3.0,88,0.00,BKN,,0.02,47.0,WeatherDisplay:10.37,2013-02-16 15:38:00,
2013-02-16 16:43:00,46.0,42.6,30.19,West,268,0.0,0.0,88,0.00,BKN,,0.02,46.0,WeatherDisplay:10.37,2013-02-16 15:43:00,
2013-02-16 16:49:00,45.9,42.5,30.19,West,267,0.0,0.0,88,0.00,BKN,,0.02,42.0,WeatherDisplay:10.37,2013-02-16 15:49:00,
2013-02-16 16:54:00,45.9,42.5,30.19,West,267,0.0,0.0,88,0.00,BKN,,0.02,37.0,WeatherDisplay:10.37,2013-02-16 15:54:00,
2013-02-16 16:59:00,45.9,42.5,30.20,West,268,0.0,0.0,88,0.00,BKN,,0.02,32.0,WeatherDisplay:10.37,2013-02-16 15:59:00,
2013-02-16 17:04:00,45.8,42.4,30.19,West,268,0.0,0.0,88,0.00,BKN,,0.02,28.0,WeatherDisplay:10.37,2013-02-16 16:04:00,
2013-02-16 17:10:00,45.8,42.4,30.19,West,268,0.0,0.0,88,0.00,BKN,,0.02,23.0,WeatherDisplay:10.37,2013-02-16 16:10:00,
2013-02-16 17:15:00,45.7,42.3,30.19,West,268,0.0,0.0,88,0.00,BKN,,0.02,16.0,WeatherDisplay:10.37,2013-02-16 16:15:00,
2013-02-16 17:20:00,45.6,42.3,30.20,West,268,0.0,0.0,88,0.00,BKN,,0.02,14.0,WeatherDisplay:10.37,2013-02-16 16:20:00,
2013-02-16 17:25:00,45.6,42.3,30.19,West,268,0.0,0.0,88,0.00,BKN,,0.02,9.0,WeatherDisplay:10.37,2013-02-16 16:25:00,
2013-02-16 17:30:00,45.5,42.2,30.19,West,268,0.0,0.0,88,0.00,BKN,,0.02,5.0,WeatherDisplay:10.37,2013-02-16 16:30:00,
2013-02-16 17:36:00,45.4,42.1,30.19,West,268,0.0,0.0,88,0.00,BKN,,0.02,5.0,WeatherDisplay:10.37,2013-02-16 16:36:00,
2013-02-16 17:41:00,45.3,42.0,30.19,West,268,0.0,0.0,88,0.00,CLR,,0.02,0.0,WeatherDisplay:10.37,2013-02-16 16:41:00,
2013-02-16 17:46:00,45.2,41.9,30.19,West,268,0.0,0.0,88,0.00,CLR,,0.02,0.0,WeatherDisplay:10.37,2013-02-16 16:46:00,
2013-02-16 17:51:00,45.1,42.1,30.19,West,268,0.0,0.0,89,0.00,CLR,,0.02,0.0,WeatherDisplay:10.37,2013-02-16 16:51:00,
2013-02-16 17:56:00,45.0,42.0,30.19,West,268,0.0,0.0,89,0.00,CLR,,0.02,0.0,WeatherDisplay:10.37,2013-02-16 16:56:00,
2013-02-16 18:02:00,44.8,41.8,30.20,West,268,0.0,0.0,89,0.00,CLR,,0.02,0.0,WeatherDisplay:10.37,2013-02-16 17:02:00,
2013-02-16 18:07:00,44.7,41.7,30.20,West,268,0.0,0.0,89,0.00,CLR,,0.02,0.0,WeatherDisplay:10.37,2013-02-16 17:07:00,
2013-02-16 18:12:00,44.6,41.6,30.20,West,268,0.0,0.0,89,0.00,CLR,,0.02,0.0,WeatherDisplay:10.37,2013-02-16 17:12:00,
2013-02-16 18:17:00,44.4,41.4,30.20,West,268,0.0,0.0,89,0.00,CLR,,0.02,0.0,WeatherDisplay:10.37,2013-02-16 17:17:00,
2013-02-16 18:22:00,44.3,41.3,30.20,West,268,0.0,0.0,89,0.00,CLR,,0.02,0.0,WeatherDisplay:10.37,2013-02-16 17:22:00,
2013-02-16 18:28:00,44.2,41.2,30.20,West,268,0.0,0.0,89,0.00,CLR,,0.02,0.0,WeatherDisplay:10.37,2013-02-16 17:28:00,
2013-02-16 18:33:00,44.1,41.1,30.20,West,268,0.0,0.0,89,0.00,CLR,,0.02,0.0,WeatherDisplay:10.37,2013-02-16 17:33:00,
2013-02-16 18:38:00,43.9,40.9,30.20,West,268,0.0,0.0,89,0.00,CLR,,0.02,0.0,WeatherDisplay:10.37,2013-02-16 17:38:00,
2013-02-16 18:43:00,43.8,40.8,30.20,West,268,0.0,0.0,89,0.00,CLR,,0.02,0.0,WeatherDisplay:10.37,2013-02-16 17:43:00,
2013-02-16 18:48:00,43.7,40.7,30.20,West,268,0.0,0.0,89,0.00,CLR,,0.02,0.0,WeatherDisplay:10.37,2013-02-16 17:48:00,
2013-02-16 18:54:00,43.6,40.9,30.20,West,268,0.0,0.0,90,0.00,CLR,,0.02,0.0,WeatherDisplay:10.37,2013-02-16 17:54:00,
2013-02-16 18:59:00,43.5,40.8,30.21,West,268,1.1,0.0,90,0.00,CLR,,0.02,0.0,WeatherDisplay:10.37,2013-02-16 17:59:00,
2013-02-16 19:04:00,43.4,40.7,30.21,West,268,0.0,0.0,90,0.00,CLR,,0.02,0.0,WeatherDisplay:10.37,2013-02-16 18:04:00,
2013-02-16 19:09:00,43.2,40.5,30.21,West,268,0.0,0.0,90,0.00,CLR,,0.02,0.0,WeatherDisplay:10.37,2013-02-16 18:09:00,
2013-02-16 19:15:00,43.1,40.4,30.21,West,268,0.0,0.0,90,0.00,CLR,,0.02,0.0,WeatherDisplay:10.37,2013-02-16 18:15:00,
2013-02-16 19:20:00,43.0,40.3,30.21,West,268,0.0,0.0,90,0.00,CLR,,0.02,0.0,WeatherDisplay:10.37,2013-02-16 18:20:00,
2013-02-16 19:25:00,42.9,40.2,30.21,West,268,0.0,0.0,90,0.00,CLR,,0.02,0.0,WeatherDisplay:10.37,2013-02-16 18:25:00,
2013-02-16 19:30:00,42.8,40.4,30.21,West,268,0.0,0.0,91,0.00,CLR,,0.02,0.0,WeatherDisplay:10.37,2013-02-16 18:30:00,
2013-02-16 19:35:00,42.7,40.3,30.21,West,268,0.0,0.0,91,0.00,CLR,,0.02,0.0,WeatherDisplay:10.37,2013-02-16 18:35:00,
2013-02-16 19:40:00,42.6,40.2,30.21,West,268,0.0,0.0,91,0.00,CLR,,0.02,0.0,WeatherDisplay:10.37,2013-02-16 18:40:00,
2013-02-16 19:46:00,42.5,40.1,30.21,West,268,0.0,0.0,91,0.00,CLR,,0.02,0.0,WeatherDisplay:10.37,2013-02-16 18:46:00,
2013-02-16 19:51:00,42.4,40.0,30.21,West,268,0.0,0.0,91,0.00,CLR,,0.02,0.0,WeatherDisplay:10.37,2013-02-16 18:51:00,
2013-02-16 19:56:00,42.3,39.9,30.22,West,268,0.0,0.0,91,0.00,CLR,,0.02,0.0,WeatherDisplay:10.37,2013-02-16 18:56:00,
2013-02-16 20:01:00,42.3,39.9,30.22,West,268,0.0,0.0,91,0.00,CLR,,0.02,0.0,WeatherDisplay:10.37,2013-02-16 19:01:00,
2013-02-16 20:06:00,42.2,39.8,30.22,West,268,0.0,0.0,91,0.00,CLR,,0.02,0.0,WeatherDisplay:10.37,2013-02-16 19:06:00,
2013-02-16 20:11:00,42.1,39.7,30.22,West,268,0.0,0.0,91,0.00,CLR,,0.02,0.0,WeatherDisplay:10.37,2013-02-16 19:11:00,
2013-02-16 20:16:00,42.1,39.9,30.22,West,268,0.0,0.0,92,0.00,CLR,,0.02,0.0,WeatherDisplay:10.37,2013-02-16 19:16:00,
2013-02-16 20:21:00,42.0,39.8,30.21,West,268,0.0,0.0,92,0.00,CLR,,0.02,0.0,WeatherDisplay:10.37,2013-02-16 19:21:00,
2013-02-16 20:27:00,41.9,39.7,30.22,West,268,0.0,0.0,92,0.00,CLR,,0.02,0.0,WeatherDisplay:10.37,2013-02-16 19:27:00,
2013-02-16 20:32:00,41.9,39.7,30.21,West,269,0.0,0.0,92,0.00,CLR,,0.02,0.0,WeatherDisplay:10.37,2013-02-16 19:32:00,
2013-02-16 20:37:00,41.8,39.6,30.22,West,269,0.0,0.0,92,0.00,CLR,,0.02,0.0,WeatherDisplay:10.37,2013-02-16 19:37:00,
2013-02-16 20:42:00,41.7,39.5,30.22,West,268,0.0,0.0,92,0.00,CLR,,0.02,0.0,WeatherDisplay:10.37,2013-02-16 19:42:00,
2013-02-16 20:47:00,41.6,39.4,30.22,West,268,0.0,0.0,92,0.00,CLR,,0.02,0.0,WeatherDisplay:10.37,2013-02-16 19:47:00,
2013-02-16 20:53:00,41.6,39.4,30.21,West,269,0.0,0.0,92,0.00,CLR,,0.02,0.0,WeatherDisplay:10.37,2013-02-16 19:53:00,
2013-02-16 20:58:00,41.6,39.4,30.22,West,269,0.0,0.0,92,0.00,CLR,,0.02,0.0,WeatherDisplay:10.37,2013-02-16 19:58:00,
2013-02-16 21:03:00,41.5,39.3,30.21,West,269,0.0,0.0,92,0.00,CLR,,0.02,0.0,WeatherDisplay:10.37,2013-02-16 20:03:00,
2013-02-16 21:08:00,41.4,39.3,30.21,West,269,0.0,0.0,92,0.00,CLR,,0.02,0.0,WeatherDisplay:10.37,2013-02-16 20:08:00,
2013-02-16 21:13:00,41.4,39.3,30.21,West,269,0.0,0.0,92,0.00,CLR,,0.02,0.0,WeatherDisplay:10.37,2013-02-16 20:13:00,
2013-02-16 21:18:00,41.4,39.3,30.21,West,269,0.0,0.0,92,0.00,CLR,,0.02,0.0,WeatherDisplay:10.37,2013-02-16 20:18:00,
2013-02-16 21:23:00,41.4,39.3,30.21,West,269,0.0,0.0,92,0.00,CLR,,0.02,0.0,WeatherDisplay:10.37,2013-02-16 20:23:00,
2013-02-16 21:29:00,41.4,39.5,30.21,West,269,0.0,0.0,93,0.00,CLR,,0.02,0.0,WeatherDisplay:10.37,2013-02-16 20:29:00,
2013-02-16 21:34:00,41.3,39.4,30.21,West,269,0.0,0.0,93,0.00,CLR,,0.02,0.0,WeatherDisplay:10.37,2013-02-16 20:34:00,
2013-02-16 21:39:00,41.3,39.4,30.21,West,269,0.0,0.0,93,0.00,CLR,,0.02,0.0,WeatherDisplay:10.37,2013-02-16 20:39:00,
2013-02-16 21:44:00,41.2,39.3,30.21,West,269,0.0,0.0,93,0.00,CLR,,0.02,0.0,WeatherDisplay:10.37,2013-02-16 20:44:00,
2013-02-16 21:50:00,41.2,39.3,30.21,West,269,0.0,0.0,93,0.00,CLR,,0.02,0.0,WeatherDisplay:10.37,2013-02-16 20:50:00,
2013-02-16 21:55:00,41.1,39.2,30.21,West,269,0.0,0.0,93,0.00,CLR,,0.02,0.0,WeatherDisplay:10.37,2013-02-16 20:55:00,
2013-02-16 22:00:00,41.1,39.2,30.22,West,269,0.0,0.0,93,0.00,CLR,,0.02,0.0,WeatherDisplay:10.37,2013-02-16 21:00:00,
2013-02-16 22:06:00,41.0,39.1,30.22,West,269,0.0,0.0,93,0.00,CLR,,0.02,0.0,WeatherDisplay:10.37,2013-02-16 21:06:00,
2013-02-16 22:11:00,40.9,39.0,30.22,West,269,0.0,0.0,93,0.00,CLR,,0.02,0.0,WeatherDisplay:10.37,2013-02-16 21:11:00,
2013-02-16 22:16:00,40.8,38.9,30.22,West,269,0.0,0.0,93,0.00,CLR,,0.02,0.0,WeatherDisplay:10.37,2013-02-16 21:16:00,
2013-02-16 22:21:00,40.8,38.9,30.22,West,269,0.0,0.0,93,0.00,CLR,,0.02,0.0,WeatherDisplay:10.37,2013-02-16 21:21:00,
2013-02-16 22:27:00,40.8,38.9,30.22,West,269,0.0,0.0,93,0.00,CLR,,0.02,0.0,WeatherDisplay:10.37,2013-02-16 21:27:00,
2013-02-16 22:32:00,40.7,38.8,30.22,West,269,0.0,0.0,93,0.00,CLR,,0.02,0.0,WeatherDisplay:10.37,2013-02-16 21:32:00,
2013-02-16 22:37:00,40.7,38.8,30.22,West,269,0.0,0.0,93,0.00,CLR,,0.02,0.0,WeatherDisplay:10.37,2013-02-16 21:37:00,
2013-02-16 22:42:00,40.6,38.7,30.22,West,269,0.0,0.0,93,0.00,CLR,,0.02,0.0,WeatherDisplay:10.37,2013-02-16 21:42:00,
2013-02-16 22:47:00,40.6,38.7,30.22,West,269,0.0,0.0,93,0.00,CLR,,0.02,0.0,WeatherDisplay:10.37,2013-02-16 21:47:00,
2013-02-16 22:53:00,40.5,38.6,30.22,West,269,0.0,0.0,93,0.00,CLR,,0.02,0.0,WeatherDisplay:10.37,2013-02-16 21:53:00,
2013-02-16 22:58:00,40.5,38.6,30.22,West,269,0.0,0.0,93,0.00,CLR,,0.02,0.0,WeatherDisplay:10.37,2013-02-16 21:58:00,
2013-02-16 23:03:00,40.4,38.5,30.22,West,269,0.0,0.0,93,0.00,CLR,,0.02,0.0,WeatherDisplay:10.37,2013-02-16 22:03:00,
2013-02-16 23:08:00,40.4,38.5,30.22,West,269,0.0,0.0,93,0.00,CLR,,0.02,0.0,WeatherDisplay:10.37,2013-02-16 22:08:00,
2013-02-16 23:14:00,40.3,38.4,30.22,West,269,0.0,0.0,93,0.00,CLR,,0.02,0.0,WeatherDisplay:10.37,2013-02-16 22:14:00,
2013-02-16 23:19:00,40.3,38.7,30.22,West,269,0.0,0.0,94,0.00,CLR,,0.02,0.0,WeatherDisplay:10.37,2013-02-16 22:19:00,
2013-02-16 23:24:00,40.3,38.4,30.22,West,269,0.0,0.0,93,0.00,CLR,,0.02,0.0,WeatherDisplay:10.37,2013-02-16 22:24:00,
2013-02-16 23:30:00,40.3,38.4,30.22,West,269,0.0,0.0,93,0.00,CLR,,0.02,0.0,WeatherDisplay:10.37,2013-02-16 22:30:00,
2013-02-16 23:35:00,40.2,38.3,30.22,West,269,0.0,0.0,93,0.00,CLR,,0.02,0.0,WeatherDisplay:10.37,2013-02-16 22:35:00,
2013-02-16 23:40:00,40.2,38.3,30.22,West,269,1.1,0.0,93,0.00,CLR,,0.02,0.0,WeatherDisplay:10.37,2013-02-16 22:40:00,
2013-02-16 23:45:00,40.2,38.6,30.22,West,269,0.0,0.0,94,0.00,CLR,,0.02,0.0,WeatherDisplay:10.37,2013-02-16 22:45:00,
2013-02-16 23:50:00,40.3,38.7,30.22,West,269,0.0,0.0,94,0.00,CLR,,0.02,0.0,WeatherDisplay:10.37,2013-02-16 22:50:00,
2013-02-16 23:56:00,40.3,38.7,30.22,West,269,0.0,0.0,94,0.00,CLR,,0.02,0.0,WeatherDisplay:10.37,2013-02-16 22:56:00,